sensor_id;sensor_type;location;lat;lon;timestamp;P1;durP1;ratioP1;P2;durP2;ratioP2
49183;SDS011;35021;49.214;12.270;2023-02-18T00:01:20;0.70;;;0.50;;
49183;SDS011;35021;49.214;12.270;2023-02-18T00:03:48;0.40;;;0.30;;
49183;SDS011;35021;49.214;12.270;2023-02-18T00:06:20;0.50;;;0.40;;
49183;SDS011;35021;49.214;12.270;2023-02-18T00:08:49;0.95;;;0.50;;
49183;SDS011;35021;49.214;12.270;2023-02-18T00:11:17;0.70;;;0.50;;
49183;SDS011;35021;49.214;12.270;2023-02-18T00:13:52;0.73;;;0.45;;
49183;SDS011;35021;49.214;12.270;2023-02-18T00:16:20;0.45;;;0.45;;
49183;SDS011;35021;49.214;12.270;2023-02-18T00:18:48;0.80;;;0.40;;
49183;SDS011;35021;49.214;12.270;2023-02-18T00:21:15;0.52;;;0.40;;
49183;SDS011;35021;49.214;12.270;2023-02-18T00:23:42;0.30;;;0.30;;
49183;SDS011;35021;49.214;12.270;2023-02-18T00:26:10;0.70;;;0.40;;
49183;SDS011;35021;49.214;12.270;2023-02-18T00:28:38;0.95;;;0.40;;
49183;SDS011;35021;49.214;12.270;2023-02-18T00:31:06;0.43;;;0.40;;
49183;SDS011;35021;49.214;12.270;2023-02-18T00:33:35;0.30;;;0.30;;
49183;SDS011;35021;49.214;12.270;2023-02-18T00:36:03;0.52;;;0.43;;
49183;SDS011;35021;49.214;12.270;2023-02-18T00:38:32;0.40;;;0.40;;
49183;SDS011;35021;49.214;12.270;2023-02-18T00:40:59;0.40;;;0.40;;
49183;SDS011;35021;49.214;12.270;2023-02-18T00:43:27;0.52;;;0.50;;
49183;SDS011;35021;49.214;12.270;2023-02-18T00:45:54;0.40;;;0.28;;
49183;SDS011;35021;49.214;12.270;2023-02-18T00:48:21;0.60;;;0.45;;
49183;SDS011;35021;49.214;12.270;2023-02-18T00:50:48;0.52;;;0.52;;
49183;SDS011;35021;49.214;12.270;2023-02-18T00:53:14;1.25;;;0.70;;
49183;SDS011;35021;49.214;12.270;2023-02-18T00:55:42;1.00;;;0.50;;
49183;SDS011;35021;49.214;12.270;2023-02-18T00:58:10;0.50;;;0.50;;
49183;SDS011;35021;49.214;12.270;2023-02-18T01:00:37;0.50;;;0.40;;
49183;SDS011;35021;49.214;12.270;2023-02-18T01:03:04;0.45;;;0.40;;
49183;SDS011;35021;49.214;12.270;2023-02-18T01:05:35;0.43;;;0.38;;
49183;SDS011;35021;49.214;12.270;2023-02-18T01:08:02;0.50;;;0.30;;
49183;SDS011;35021;49.214;12.270;2023-02-18T01:10:30;0.47;;;0.45;;
49183;SDS011;35021;49.214;12.270;2023-02-18T01:12:57;0.40;;;0.40;;
49183;SDS011;35021;49.214;12.270;2023-02-18T01:15:24;0.50;;;0.40;;
49183;SDS011;35021;49.214;12.270;2023-02-18T01:17:51;0.40;;;0.40;;
49183;SDS011;35021;49.214;12.270;2023-02-18T01:20:18;0.50;;;0.47;;
49183;SDS011;35021;49.214;12.270;2023-02-18T01:22:45;0.50;;;0.40;;
49183;SDS011;35021;49.214;12.270;2023-02-18T01:25:12;0.55;;;0.40;;
49183;SDS011;35021;49.214;12.270;2023-02-18T01:27:40;0.40;;;0.40;;
49183;SDS011;35021;49.214;12.270;2023-02-18T01:30:08;0.43;;;0.38;;
49183;SDS011;35021;49.214;12.270;2023-02-18T01:32:37;0.43;;;0.40;;
49183;SDS011;35021;49.214;12.270;2023-02-18T01:35:04;0.82;;;0.52;;
49183;SDS011;35021;49.214;12.270;2023-02-18T01:37:32;0.70;;;0.30;;
49183;SDS011;35021;49.214;12.270;2023-02-18T01:39:59;0.43;;;0.43;;
49183;SDS011;35021;49.214;12.270;2023-02-18T01:42:27;0.30;;;0.30;;
49183;SDS011;35021;49.214;12.270;2023-02-18T01:45:31;1.85;;;0.52;;
49183;SDS011;35021;49.214;12.270;2023-02-18T01:48:00;1.05;;;0.60;;
49183;SDS011;35021;49.214;12.270;2023-02-18T01:50:50;0.40;;;0.40;;
49183;SDS011;35021;49.214;12.270;2023-02-18T01:53:25;0.40;;;0.40;;
49183;SDS011;35021;49.214;12.270;2023-02-18T01:55:56;0.45;;;0.45;;
49183;SDS011;35021;49.214;12.270;2023-02-18T01:58:25;0.35;;;0.30;;
49183;SDS011;35021;49.214;12.270;2023-02-18T02:00:52;0.40;;;0.40;;
49183;SDS011;35021;49.214;12.270;2023-02-18T02:03:19;0.30;;;0.30;;
49183;SDS011;35021;49.214;12.270;2023-02-18T02:05:46;0.50;;;0.30;;
49183;SDS011;35021;49.214;12.270;2023-02-18T02:08:12;0.40;;;0.40;;
49183;SDS011;35021;49.214;12.270;2023-02-18T02:10:43;0.30;;;0.30;;
49183;SDS011;35021;49.214;12.270;2023-02-18T02:13:41;0.43;;;0.30;;
49183;SDS011;35021;49.214;12.270;2023-02-18T02:16:13;0.40;;;0.40;;
49183;SDS011;35021;49.214;12.270;2023-02-18T02:19:03;0.35;;;0.30;;
49183;SDS011;35021;49.214;12.270;2023-02-18T02:21:51;0.30;;;0.30;;
49183;SDS011;35021;49.214;12.270;2023-02-18T02:27:14;0.88;;;0.60;;
49183;SDS011;35021;49.214;12.270;2023-02-18T02:35:29;1.08;;;0.40;;
49183;SDS011;35021;49.214;12.270;2023-02-18T02:38:06;0.30;;;0.30;;
49183;SDS011;35021;49.214;12.270;2023-02-18T02:40:51;0.65;;;0.30;;
49183;SDS011;35021;49.214;12.270;2023-02-18T02:43:33;0.30;;;0.30;;
49183;SDS011;35021;49.214;12.270;2023-02-18T02:49:08;0.40;;;0.20;;
49183;SDS011;35021;49.214;12.270;2023-02-18T02:54:22;0.30;;;0.30;;
49183;SDS011;35021;49.214;12.270;2023-02-18T02:59:45;0.30;;;0.30;;
49183;SDS011;35021;49.214;12.270;2023-02-18T03:05:42;0.30;;;0.20;;
49183;SDS011;35021;49.214;12.270;2023-02-18T03:13:56;0.30;;;0.30;;
49183;SDS011;35021;49.214;12.270;2023-02-18T03:16:36;0.30;;;0.30;;
49183;SDS011;35021;49.214;12.270;2023-02-18T03:19:23;0.22;;;0.22;;
49183;SDS011;35021;49.214;12.270;2023-02-18T03:22:05;0.30;;;0.30;;
49183;SDS011;35021;49.214;12.270;2023-02-18T03:24:55;0.63;;;0.47;;
49183;SDS011;35021;49.214;12.270;2023-02-18T03:27:24;0.35;;;0.30;;
49183;SDS011;35021;49.214;12.270;2023-02-18T03:30:02;0.40;;;0.30;;
49183;SDS011;35021;49.214;12.270;2023-02-18T03:32:41;0.52;;;0.38;;
49183;SDS011;35021;49.214;12.270;2023-02-18T03:35:10;0.10;;;0.10;;
49183;SDS011;35021;49.214;12.270;2023-02-18T03:37:47;0.63;;;0.40;;
49183;SDS011;35021;49.214;12.270;2023-02-18T03:40:18;0.20;;;0.20;;
49183;SDS011;35021;49.214;12.270;2023-02-18T03:42:45;0.30;;;0.30;;
49183;SDS011;35021;49.214;12.270;2023-02-18T03:45:11;0.30;;;0.30;;
49183;SDS011;35021;49.214;12.270;2023-02-18T03:47:38;0.20;;;0.20;;
49183;SDS011;35021;49.214;12.270;2023-02-18T03:50:05;0.20;;;0.20;;
49183;SDS011;35021;49.214;12.270;2023-02-18T03:52:33;0.43;;;0.40;;
49183;SDS011;35021;49.214;12.270;2023-02-18T03:55:05;0.40;;;0.35;;
49183;SDS011;35021;49.214;12.270;2023-02-18T03:57:32;0.22;;;0.20;;
49183;SDS011;35021;49.214;12.270;2023-02-18T03:59:59;0.40;;;0.30;;
49183;SDS011;35021;49.214;12.270;2023-02-18T04:02:26;0.35;;;0.20;;
49183;SDS011;35021;49.214;12.270;2023-02-18T04:04:53;0.32;;;0.30;;
49183;SDS011;35021;49.214;12.270;2023-02-18T04:07:19;0.40;;;0.30;;
49183;SDS011;35021;49.214;12.270;2023-02-18T04:09:46;0.30;;;0.30;;
49183;SDS011;35021;49.214;12.270;2023-02-18T04:12:13;0.20;;;0.20;;
49183;SDS011;35021;49.214;12.270;2023-02-18T04:14:40;0.50;;;0.30;;
49183;SDS011;35021;49.214;12.270;2023-02-18T04:17:07;0.28;;;0.20;;
49183;SDS011;35021;49.214;12.270;2023-02-18T04:19:35;0.30;;;0.30;;
49183;SDS011;35021;49.214;12.270;2023-02-18T04:22:02;0.90;;;0.43;;
49183;SDS011;35021;49.214;12.270;2023-02-18T04:24:28;0.43;;;0.22;;
49183;SDS011;35021;49.214;12.270;2023-02-18T04:26:55;0.40;;;0.40;;
49183;SDS011;35021;49.214;12.270;2023-02-18T04:29:22;0.40;;;0.30;;
49183;SDS011;35021;49.214;12.270;2023-02-18T04:31:49;0.22;;;0.22;;
49183;SDS011;35021;49.214;12.270;2023-02-18T04:34:16;0.20;;;0.20;;
49183;SDS011;35021;49.214;12.270;2023-02-18T04:36:42;0.10;;;0.10;;
49183;SDS011;35021;49.214;12.270;2023-02-18T04:39:09;0.35;;;0.28;;
49183;SDS011;35021;49.214;12.270;2023-02-18T04:41:36;0.52;;;0.25;;
49183;SDS011;35021;49.214;12.270;2023-02-18T04:44:03;0.20;;;0.20;;
49183;SDS011;35021;49.214;12.270;2023-02-18T04:46:30;0.30;;;0.20;;
49183;SDS011;35021;49.214;12.270;2023-02-18T04:48:57;0.30;;;0.20;;
49183;SDS011;35021;49.214;12.270;2023-02-18T04:51:24;0.20;;;0.20;;
49183;SDS011;35021;49.214;12.270;2023-02-18T04:53:51;0.82;;;0.28;;
49183;SDS011;35021;49.214;12.270;2023-02-18T04:56:18;0.45;;;0.43;;
49183;SDS011;35021;49.214;12.270;2023-02-18T04:58:45;0.60;;;0.30;;
49183;SDS011;35021;49.214;12.270;2023-02-18T05:01:12;0.32;;;0.28;;
49183;SDS011;35021;49.214;12.270;2023-02-18T05:03:39;0.35;;;0.30;;
49183;SDS011;35021;49.214;12.270;2023-02-18T05:06:06;0.50;;;0.50;;
49183;SDS011;35021;49.214;12.270;2023-02-18T05:08:33;0.73;;;0.30;;
49183;SDS011;35021;49.214;12.270;2023-02-18T05:11:03;0.40;;;0.30;;
49183;SDS011;35021;49.214;12.270;2023-02-18T05:13:32;0.85;;;0.30;;
49183;SDS011;35021;49.214;12.270;2023-02-18T05:15:59;0.20;;;0.20;;
49183;SDS011;35021;49.214;12.270;2023-02-18T05:18:26;0.22;;;0.20;;
49183;SDS011;35021;49.214;12.270;2023-02-18T05:20:53;0.90;;;0.40;;
49183;SDS011;35021;49.214;12.270;2023-02-18T05:23:20;0.57;;;0.32;;
49183;SDS011;35021;49.214;12.270;2023-02-18T05:25:47;0.30;;;0.30;;
49183;SDS011;35021;49.214;12.270;2023-02-18T05:28:14;0.55;;;0.32;;
49183;SDS011;35021;49.214;12.270;2023-02-18T05:30:40;1.88;;;0.40;;
49183;SDS011;35021;49.214;12.270;2023-02-18T05:33:07;0.20;;;0.20;;
49183;SDS011;35021;49.214;12.270;2023-02-18T05:35:34;0.43;;;0.30;;
49183;SDS011;35021;49.214;12.270;2023-02-18T05:38:01;0.65;;;0.30;;
49183;SDS011;35021;49.214;12.270;2023-02-18T05:40:28;0.52;;;0.40;;
49183;SDS011;35021;49.214;12.270;2023-02-18T05:42:54;0.30;;;0.30;;
49183;SDS011;35021;49.214;12.270;2023-02-18T05:45:21;0.45;;;0.20;;
49183;SDS011;35021;49.214;12.270;2023-02-18T05:47:48;0.20;;;0.20;;
49183;SDS011;35021;49.214;12.270;2023-02-18T05:50:15;0.38;;;0.28;;
49183;SDS011;35021;49.214;12.270;2023-02-18T05:52:42;0.90;;;0.30;;
49183;SDS011;35021;49.214;12.270;2023-02-18T05:55:09;0.40;;;0.30;;
49183;SDS011;35021;49.214;12.270;2023-02-18T05:57:36;0.30;;;0.28;;
49183;SDS011;35021;49.214;12.270;2023-02-18T06:00:03;0.32;;;0.30;;
49183;SDS011;35021;49.214;12.270;2023-02-18T06:02:31;0.28;;;0.28;;
49183;SDS011;35021;49.214;12.270;2023-02-18T06:04:58;0.40;;;0.40;;
49183;SDS011;35021;49.214;12.270;2023-02-18T06:07:25;0.35;;;0.32;;
49183;SDS011;35021;49.214;12.270;2023-02-18T06:09:52;0.45;;;0.20;;
49183;SDS011;35021;49.214;12.270;2023-02-18T06:12:19;0.40;;;0.25;;
49183;SDS011;35021;49.214;12.270;2023-02-18T06:14:45;0.20;;;0.20;;
49183;SDS011;35021;49.214;12.270;2023-02-18T06:17:13;0.40;;;0.20;;
49183;SDS011;35021;49.214;12.270;2023-02-18T06:19:40;0.30;;;0.20;;
49183;SDS011;35021;49.214;12.270;2023-02-18T06:22:07;0.60;;;0.35;;
49183;SDS011;35021;49.214;12.270;2023-02-18T06:24:34;0.43;;;0.20;;
49183;SDS011;35021;49.214;12.270;2023-02-18T06:27:01;0.57;;;0.30;;
49183;SDS011;35021;49.214;12.270;2023-02-18T06:29:29;0.38;;;0.30;;
49183;SDS011;35021;49.214;12.270;2023-02-18T06:31:59;0.20;;;0.20;;
49183;SDS011;35021;49.214;12.270;2023-02-18T06:34:26;0.30;;;0.30;;
49183;SDS011;35021;49.214;12.270;2023-02-18T06:36:53;0.73;;;0.50;;
49183;SDS011;35021;49.214;12.270;2023-02-18T06:39:20;0.50;;;0.43;;
49183;SDS011;35021;49.214;12.270;2023-02-18T06:41:47;0.73;;;0.50;;
49183;SDS011;35021;49.214;12.270;2023-02-18T06:44:14;0.40;;;0.35;;
49183;SDS011;35021;49.214;12.270;2023-02-18T06:46:42;0.50;;;0.50;;
49183;SDS011;35021;49.214;12.270;2023-02-18T06:49:10;0.65;;;0.40;;
49183;SDS011;35021;49.214;12.270;2023-02-18T06:51:37;0.45;;;0.35;;
49183;SDS011;35021;49.214;12.270;2023-02-18T06:54:04;0.30;;;0.30;;
49183;SDS011;35021;49.214;12.270;2023-02-18T06:56:31;0.90;;;0.50;;
49183;SDS011;35021;49.214;12.270;2023-02-18T06:58:58;0.60;;;0.38;;
49183;SDS011;35021;49.214;12.270;2023-02-18T07:01:25;0.50;;;0.40;;
49183;SDS011;35021;49.214;12.270;2023-02-18T07:03:52;0.65;;;0.40;;
49183;SDS011;35021;49.214;12.270;2023-02-18T07:06:18;1.75;;;0.47;;
49183;SDS011;35021;49.214;12.270;2023-02-18T07:08:45;1.40;;;0.40;;
49183;SDS011;35021;49.214;12.270;2023-02-18T07:11:12;0.50;;;0.43;;
49183;SDS011;35021;49.214;12.270;2023-02-18T07:13:39;0.50;;;0.50;;
49183;SDS011;35021;49.214;12.270;2023-02-18T07:16:06;0.88;;;0.38;;
49183;SDS011;35021;49.214;12.270;2023-02-18T07:18:33;1.30;;;0.60;;
49183;SDS011;35021;49.214;12.270;2023-02-18T07:21:00;0.65;;;0.50;;
49183;SDS011;35021;49.214;12.270;2023-02-18T07:23:27;0.40;;;0.40;;
49183;SDS011;35021;49.214;12.270;2023-02-18T07:26:01;0.43;;;0.43;;
49183;SDS011;35021;49.214;12.270;2023-02-18T07:28:31;0.73;;;0.50;;
49183;SDS011;35021;49.214;12.270;2023-02-18T07:30:57;0.45;;;0.45;;
49183;SDS011;35021;49.214;12.270;2023-02-18T07:33:24;0.60;;;0.60;;
49183;SDS011;35021;49.214;12.270;2023-02-18T07:35:52;0.57;;;0.50;;
49183;SDS011;35021;49.214;12.270;2023-02-18T07:38:20;0.55;;;0.47;;
49183;SDS011;35021;49.214;12.270;2023-02-18T07:40:48;0.60;;;0.60;;
49183;SDS011;35021;49.214;12.270;2023-02-18T07:43:15;1.48;;;0.45;;
49183;SDS011;35021;49.214;12.270;2023-02-18T07:45:42;0.60;;;0.50;;
49183;SDS011;35021;49.214;12.270;2023-02-18T07:48:10;0.50;;;0.47;;
49183;SDS011;35021;49.214;12.270;2023-02-18T07:50:38;0.55;;;0.30;;
49183;SDS011;35021;49.214;12.270;2023-02-18T07:53:06;0.95;;;0.50;;
49183;SDS011;35021;49.214;12.270;2023-02-18T07:55:33;0.68;;;0.50;;
49183;SDS011;35021;49.214;12.270;2023-02-18T07:58:26;1.42;;;0.50;;
49183;SDS011;35021;49.214;12.270;2023-02-18T08:00:54;0.70;;;0.50;;
49183;SDS011;35021;49.214;12.270;2023-02-18T08:03:26;0.60;;;0.47;;
49183;SDS011;35021;49.214;12.270;2023-02-18T08:05:55;0.57;;;0.50;;
49183;SDS011;35021;49.214;12.270;2023-02-18T08:08:24;0.50;;;0.50;;
49183;SDS011;35021;49.214;12.270;2023-02-18T08:10:52;0.70;;;0.55;;
49183;SDS011;35021;49.214;12.270;2023-02-18T08:13:21;3.20;;;1.00;;
49183;SDS011;35021;49.214;12.270;2023-02-18T08:15:47;1.27;;;0.80;;
49183;SDS011;35021;49.214;12.270;2023-02-18T08:18:16;1.42;;;0.73;;
49183;SDS011;35021;49.214;12.270;2023-02-18T08:20:44;2.47;;;0.70;;
49183;SDS011;35021;49.214;12.270;2023-02-18T08:23:13;0.95;;;0.57;;
49183;SDS011;35021;49.214;12.270;2023-02-18T08:25:44;0.95;;;0.68;;
49183;SDS011;35021;49.214;12.270;2023-02-18T08:28:16;1.75;;;0.63;;
49183;SDS011;35021;49.214;12.270;2023-02-18T08:30:47;0.65;;;0.57;;
49183;SDS011;35021;49.214;12.270;2023-02-18T08:33:15;1.15;;;0.50;;
49183;SDS011;35021;49.214;12.270;2023-02-18T08:35:43;1.00;;;0.50;;
49183;SDS011;35021;49.214;12.270;2023-02-18T08:38:11;0.93;;;0.70;;
49183;SDS011;35021;49.214;12.270;2023-02-18T08:40:37;0.80;;;0.50;;
49183;SDS011;35021;49.214;12.270;2023-02-18T08:43:06;1.15;;;0.73;;
49183;SDS011;35021;49.214;12.270;2023-02-18T08:45:33;1.30;;;0.60;;
49183;SDS011;35021;49.214;12.270;2023-02-18T08:48:01;1.90;;;0.82;;
49183;SDS011;35021;49.214;12.270;2023-02-18T08:50:44;1.13;;;0.80;;
49183;SDS011;35021;49.214;12.270;2023-02-18T08:53:11;1.33;;;0.60;;
49183;SDS011;35021;49.214;12.270;2023-02-18T08:55:38;0.80;;;0.60;;
49183;SDS011;35021;49.214;12.270;2023-02-18T08:58:06;0.40;;;0.40;;
49183;SDS011;35021;49.214;12.270;2023-02-18T09:00:33;0.65;;;0.60;;
49183;SDS011;35021;49.214;12.270;2023-02-18T09:03:00;1.23;;;0.80;;
49183;SDS011;35021;49.214;12.270;2023-02-18T09:05:27;1.10;;;0.80;;
49183;SDS011;35021;49.214;12.270;2023-02-18T09:07:54;0.70;;;0.70;;
49183;SDS011;35021;49.214;12.270;2023-02-18T09:10:21;0.90;;;0.77;;
49183;SDS011;35021;49.214;12.270;2023-02-18T09:12:48;2.78;;;0.70;;
49183;SDS011;35021;49.214;12.270;2023-02-18T09:15:15;1.38;;;0.70;;
49183;SDS011;35021;49.214;12.270;2023-02-18T09:17:42;1.17;;;0.63;;
49183;SDS011;35021;49.214;12.270;2023-02-18T09:20:10;0.70;;;0.70;;
49183;SDS011;35021;49.214;12.270;2023-02-18T09:22:37;0.65;;;0.55;;
49183;SDS011;35021;49.214;12.270;2023-02-18T09:25:04;1.00;;;0.70;;
49183;SDS011;35021;49.214;12.270;2023-02-18T09:27:32;1.15;;;0.80;;
49183;SDS011;35021;49.214;12.270;2023-02-18T09:29:59;1.13;;;0.75;;
49183;SDS011;35021;49.214;12.270;2023-02-18T09:32:26;1.27;;;0.70;;
49183;SDS011;35021;49.214;12.270;2023-02-18T09:35:00;0.98;;;0.73;;
49183;SDS011;35021;49.214;12.270;2023-02-18T09:37:28;1.45;;;0.88;;
49183;SDS011;35021;49.214;12.270;2023-02-18T09:39:56;0.82;;;0.60;;
49183;SDS011;35021;49.214;12.270;2023-02-18T09:42:32;2.58;;;0.80;;
49183;SDS011;35021;49.214;12.270;2023-02-18T09:45:02;1.80;;;0.77;;
49183;SDS011;35021;49.214;12.270;2023-02-18T09:52:43;1.30;;;0.68;;
49183;SDS011;35021;49.214;12.270;2023-02-18T09:57:53;2.15;;;0.80;;
49183;SDS011;35021;49.214;12.270;2023-02-18T10:00:32;1.65;;;0.90;;
49183;SDS011;35021;49.214;12.270;2023-02-18T10:03:04;0.90;;;0.68;;
49183;SDS011;35021;49.214;12.270;2023-02-18T10:05:59;3.10;;;0.70;;
49183;SDS011;35021;49.214;12.270;2023-02-18T10:08:33;1.02;;;0.75;;
49183;SDS011;35021;49.214;12.270;2023-02-18T10:11:09;0.75;;;0.60;;
49183;SDS011;35021;49.214;12.270;2023-02-18T10:13:39;0.60;;;0.55;;
49183;SDS011;35021;49.214;12.270;2023-02-18T10:16:06;0.95;;;0.75;;
49183;SDS011;35021;49.214;12.270;2023-02-18T10:18:36;1.05;;;0.80;;
49183;SDS011;35021;49.214;12.270;2023-02-18T10:21:40;0.50;;;0.50;;
49183;SDS011;35021;49.214;12.270;2023-02-18T10:24:05;1.20;;;0.90;;
49183;SDS011;35021;49.214;12.270;2023-02-18T10:26:43;1.90;;;1.20;;
49183;SDS011;35021;49.214;12.270;2023-02-18T10:29:15;0.80;;;0.70;;
49183;SDS011;35021;49.214;12.270;2023-02-18T10:31:58;0.68;;;0.68;;
49183;SDS011;35021;49.214;12.270;2023-02-18T10:34:41;1.42;;;0.80;;
49183;SDS011;35021;49.214;12.270;2023-02-18T10:37:26;2.15;;;0.77;;
49183;SDS011;35021;49.214;12.270;2023-02-18T10:41:06;0.82;;;0.60;;
49183;SDS011;35021;49.214;12.270;2023-02-18T10:48:52;0.90;;;0.70;;
49183;SDS011;35021;49.214;12.270;2023-02-18T10:51:50;0.95;;;0.80;;
49183;SDS011;35021;49.214;12.270;2023-02-18T10:54:24;0.93;;;0.73;;
49183;SDS011;35021;49.214;12.270;2023-02-18T10:56:53;2.75;;;0.80;;
49183;SDS011;35021;49.214;12.270;2023-02-18T10:59:25;0.70;;;0.60;;
49183;SDS011;35021;49.214;12.270;2023-02-18T11:02:01;1.33;;;0.60;;
49183;SDS011;35021;49.214;12.270;2023-02-18T11:04:39;1.48;;;0.70;;
49183;SDS011;35021;49.214;12.270;2023-02-18T11:07:12;0.75;;;0.50;;
49183;SDS011;35021;49.214;12.270;2023-02-18T11:09:42;0.60;;;0.50;;
49183;SDS011;35021;49.214;12.270;2023-02-18T11:12:22;0.80;;;0.60;;
49183;SDS011;35021;49.214;12.270;2023-02-18T11:15:05;0.70;;;0.70;;
49183;SDS011;35021;49.214;12.270;2023-02-18T11:17:33;1.02;;;0.57;;
49183;SDS011;35021;49.214;12.270;2023-02-18T11:20:20;1.20;;;0.63;;
49183;SDS011;35021;49.214;12.270;2023-02-18T11:25:21;1.83;;;0.70;;
49183;SDS011;35021;49.214;12.270;2023-02-18T11:27:50;1.20;;;0.65;;
49183;SDS011;35021;49.214;12.270;2023-02-18T11:30:35;0.60;;;0.60;;
49183;SDS011;35021;49.214;12.270;2023-02-18T11:33:13;0.80;;;0.70;;
49183;SDS011;35021;49.214;12.270;2023-02-18T11:35:49;1.05;;;0.68;;
49183;SDS011;35021;49.214;12.270;2023-02-18T11:38:34;0.80;;;0.60;;
49183;SDS011;35021;49.214;12.270;2023-02-18T11:41:20;0.93;;;0.60;;
49183;SDS011;35021;49.214;12.270;2023-02-18T11:43:56;1.50;;;0.65;;
49183;SDS011;35021;49.214;12.270;2023-02-18T11:46:24;1.50;;;0.70;;
49183;SDS011;35021;49.214;12.270;2023-02-18T11:48:53;0.82;;;0.70;;
49183;SDS011;35021;49.214;12.270;2023-02-18T11:51:24;0.90;;;0.80;;
49183;SDS011;35021;49.214;12.270;2023-02-18T11:56:26;1.15;;;0.60;;
49183;SDS011;35021;49.214;12.270;2023-02-18T11:58:54;0.82;;;0.63;;
49183;SDS011;35021;49.214;12.270;2023-02-18T12:01:36;0.90;;;0.80;;
49183;SDS011;35021;49.214;12.270;2023-02-18T12:09:42;1.08;;;0.77;;
49183;SDS011;35021;49.214;12.270;2023-02-18T12:14:43;0.77;;;0.63;;
49183;SDS011;35021;49.214;12.270;2023-02-18T12:19:59;0.60;;;0.60;;
49183;SDS011;35021;49.214;12.270;2023-02-18T12:42:21;0.60;;;0.60;;
49183;SDS011;35021;49.214;12.270;2023-02-18T12:45:06;0.85;;;0.55;;
49183;SDS011;35021;49.214;12.270;2023-02-18T12:51:20;1.98;;;0.80;;
49183;SDS011;35021;49.214;12.270;2023-02-18T12:56:55;0.90;;;0.77;;
49183;SDS011;35021;49.214;12.270;2023-02-18T13:12:47;0.65;;;0.60;;
49183;SDS011;35021;49.214;12.270;2023-02-18T13:15:28;1.33;;;0.90;;
49183;SDS011;35021;49.214;12.270;2023-02-18T13:18:00;0.80;;;0.70;;
49183;SDS011;35021;49.214;12.270;2023-02-18T13:20:41;1.00;;;0.68;;
49183;SDS011;35021;49.214;12.270;2023-02-18T13:23:28;0.77;;;0.68;;
49183;SDS011;35021;49.214;12.270;2023-02-18T13:26:02;1.90;;;0.60;;
49183;SDS011;35021;49.214;12.270;2023-02-18T13:28:37;0.70;;;0.47;;
49183;SDS011;35021;49.214;12.270;2023-02-18T13:39:35;1.10;;;0.60;;
49183;SDS011;35021;49.214;12.270;2023-02-18T13:42:37;1.27;;;1.17;;
49183;SDS011;35021;49.214;12.270;2023-02-18T13:47:37;0.68;;;0.30;;
49183;SDS011;35021;49.214;12.270;2023-02-18T13:52:48;0.50;;;0.50;;
49183;SDS011;35021;49.214;12.270;2023-02-18T13:55:17;0.80;;;0.52;;
49183;SDS011;35021;49.214;12.270;2023-02-18T13:57:52;0.75;;;0.60;;
49183;SDS011;35021;49.214;12.270;2023-02-18T14:00:21;1.20;;;0.75;;
49183;SDS011;35021;49.214;12.270;2023-02-18T14:02:55;0.68;;;0.50;;
49183;SDS011;35021;49.214;12.270;2023-02-18T14:05:39;0.80;;;0.70;;
49183;SDS011;35021;49.214;12.270;2023-02-18T14:11:22;0.88;;;0.57;;
49183;SDS011;35021;49.214;12.270;2023-02-18T14:16:26;0.82;;;0.68;;
49183;SDS011;35021;49.214;12.270;2023-02-18T14:19:38;0.70;;;0.60;;
49183;SDS011;35021;49.214;12.270;2023-02-18T14:24:55;0.60;;;0.60;;
49183;SDS011;35021;49.214;12.270;2023-02-18T14:27:42;1.00;;;0.68;;
49183;SDS011;35021;49.214;12.270;2023-02-18T14:30:19;0.70;;;0.50;;
49183;SDS011;35021;49.214;12.270;2023-02-18T14:32:58;0.55;;;0.50;;
49183;SDS011;35021;49.214;12.270;2023-02-18T14:38:30;0.68;;;0.60;;
49183;SDS011;35021;49.214;12.270;2023-02-18T14:52:03;1.33;;;0.60;;
49183;SDS011;35021;49.214;12.270;2023-02-18T14:54:35;1.02;;;0.50;;
49183;SDS011;35021;49.214;12.270;2023-02-18T14:57:03;1.00;;;0.60;;
49183;SDS011;35021;49.214;12.270;2023-02-18T14:59:33;0.77;;;0.77;;
49183;SDS011;35021;49.214;12.270;2023-02-18T15:02:13;0.70;;;0.47;;
49183;SDS011;35021;49.214;12.270;2023-02-18T15:04:45;0.93;;;0.52;;
49183;SDS011;35021;49.214;12.270;2023-02-18T15:07:12;0.65;;;0.50;;
49183;SDS011;35021;49.214;12.270;2023-02-18T15:09:49;0.90;;;0.65;;
49183;SDS011;35021;49.214;12.270;2023-02-18T15:12:19;2.10;;;0.80;;
49183;SDS011;35021;49.214;12.270;2023-02-18T15:14:51;0.80;;;0.60;;
49183;SDS011;35021;49.214;12.270;2023-02-18T15:17:25;1.10;;;0.45;;
49183;SDS011;35021;49.214;12.270;2023-02-18T15:19:56;1.23;;;0.60;;
49183;SDS011;35021;49.214;12.270;2023-02-18T15:22:30;0.85;;;0.65;;
49183;SDS011;35021;49.214;12.270;2023-02-18T15:24:59;0.50;;;0.50;;
49183;SDS011;35021;49.214;12.270;2023-02-18T15:27:27;0.60;;;0.50;;
49183;SDS011;35021;49.214;12.270;2023-02-18T15:32:30;1.23;;;0.60;;
49183;SDS011;35021;49.214;12.270;2023-02-18T15:34:59;0.50;;;0.50;;
49183;SDS011;35021;49.214;12.270;2023-02-18T15:37:28;0.77;;;0.52;;
49183;SDS011;35021;49.214;12.270;2023-02-18T15:39:56;0.50;;;0.50;;
49183;SDS011;35021;49.214;12.270;2023-02-18T15:42:27;0.80;;;0.60;;
49183;SDS011;35021;49.214;12.270;2023-02-18T15:47:52;0.77;;;0.77;;
49183;SDS011;35021;49.214;12.270;2023-02-18T15:50:24;0.80;;;0.70;;
49183;SDS011;35021;49.214;12.270;2023-02-18T15:52:58;0.60;;;0.60;;
49183;SDS011;35021;49.214;12.270;2023-02-18T15:55:31;2.08;;;0.70;;
49183;SDS011;35021;49.214;12.270;2023-02-18T15:58:02;2.08;;;0.75;;
49183;SDS011;35021;49.214;12.270;2023-02-18T16:00:32;0.70;;;0.60;;
49183;SDS011;35021;49.214;12.270;2023-02-18T16:03:11;1.38;;;0.57;;
49183;SDS011;35021;49.214;12.270;2023-02-18T16:05:40;0.50;;;0.45;;
49183;SDS011;35021;49.214;12.270;2023-02-18T16:08:14;0.90;;;0.70;;
49183;SDS011;35021;49.214;12.270;2023-02-18T16:10:48;0.65;;;0.57;;
49183;SDS011;35021;49.214;12.270;2023-02-18T16:13:19;1.52;;;0.70;;
49183;SDS011;35021;49.214;12.270;2023-02-18T16:15:47;0.63;;;0.60;;
49183;SDS011;35021;49.214;12.270;2023-02-18T16:21:06;0.80;;;0.65;;
49183;SDS011;35021;49.214;12.270;2023-02-18T16:23:58;0.70;;;0.63;;
49183;SDS011;35021;49.214;12.270;2023-02-18T16:26:29;0.88;;;0.68;;
49183;SDS011;35021;49.214;12.270;2023-02-18T16:29:12;0.85;;;0.65;;
49183;SDS011;35021;49.214;12.270;2023-02-18T16:31:57;0.63;;;0.63;;
49183;SDS011;35021;49.214;12.270;2023-02-18T16:34:24;0.95;;;0.60;;
49183;SDS011;35021;49.214;12.270;2023-02-18T16:36:53;0.80;;;0.52;;
49183;SDS011;35021;49.214;12.270;2023-02-18T16:39:38;0.85;;;0.60;;
49183;SDS011;35021;49.214;12.270;2023-02-18T16:42:09;1.08;;;0.60;;
49183;SDS011;35021;49.214;12.270;2023-02-18T16:44:37;1.45;;;0.70;;
49183;SDS011;35021;49.214;12.270;2023-02-18T16:47:04;0.98;;;0.57;;
49183;SDS011;35021;49.214;12.270;2023-02-18T16:49:32;1.08;;;0.77;;
49183;SDS011;35021;49.214;12.270;2023-02-18T16:52:00;0.68;;;0.60;;
49183;SDS011;35021;49.214;12.270;2023-02-18T16:54:32;0.75;;;0.55;;
49183;SDS011;35021;49.214;12.270;2023-02-18T16:56:59;0.93;;;0.70;;
49183;SDS011;35021;49.214;12.270;2023-02-18T16:59:26;1.17;;;0.70;;
49183;SDS011;35021;49.214;12.270;2023-02-18T17:01:53;1.33;;;0.60;;
49183;SDS011;35021;49.214;12.270;2023-02-18T17:04:21;0.75;;;0.70;;
49183;SDS011;35021;49.214;12.270;2023-02-18T17:06:48;0.70;;;0.60;;
49183;SDS011;35021;49.214;12.270;2023-02-18T17:09:17;1.85;;;0.88;;
49183;SDS011;35021;49.214;12.270;2023-02-18T17:11:51;0.57;;;0.57;;
49183;SDS011;35021;49.214;12.270;2023-02-18T17:14:20;0.60;;;0.50;;
49183;SDS011;35021;49.214;12.270;2023-02-18T17:16:49;1.73;;;0.75;;